Audacia — ZCIM3 — position and weather

sailwx.info

Track history (hours):
 
Tides and Currents Weather Stations Pressure Air Temp Water Temp Dewpoint Dewpoint Depression Visibility Wind Speed Wind Dir Waves Ship Positions

Audacia

Last reported at 2014-Jun-30 13:27 UTC. Time now 2014-Jul-24 14:39 UTC.
Position N 37°52' E 027°16'.
Warning: this ship's position is 24 days out of date.

; draft 3.2 m.

Type: Pleasure craft. MMSI: 319825000.

Date/timePositionNaut miles runAvg speedWind from/ knotsBaromVisibWave heightAir tempDewpointWater temp
2014-Jun-30 13:27N 37°52' E 027°16'  
2014-Jun-27 11:30N 36°41' E 027°23'10 1.4
2014-Jun-27 04:18N 36°36' E 027°35'6412.5
2014-Jun-26 23:11N 36°29' E 026°16'912.4
2014-Jun-26 22:28N 36°29' E 026°05'1212.6
2014-Jun-26 21:33N 36°29' E 025°50'1212.5
2014-Jun-26 20:33N 36°30' E 025°35'1110.9
2014-Jun-26 19:33N 36°27' E 025°21'4 0.6
2014-Jun-26 12:25N 36°25' E 025°26'5 5.2
2014-Jun-26 11:33N 36°28' E 025°21'1312.6
2014-Jun-26 10:33N 36°40' E 025°18'3 2.6
2014-Jun-26 09:33N 36°43' E 025°17'0 0.0
2014-Jun-26 07:33N 36°43' E 025°17'0 0.0
2014-Jun-26 06:27N 36°43' E 025°17'0 0.0
2014-Jun-26 05:27N 36°43' E 025°17'0 0.0
2014-Jun-26 03:27N 36°43' E 025°17'15 1.0
2014-Jun-25 12:31N 36°57' E 025°17'1212.1
2014-Jun-25 11:33N 37°09' E 025°20'1312.7
2014-Jun-25 10:33N 37°21' E 025°20'3 3.3
2014-Jun-25 09:32N 37°25' E 025°20'0 0.0
2014-Jun-25 08:32N 37°25' E 025°20'0 0.0
2014-Jun-25 07:29N 37°25' E 025°20'0 0.0
2014-Jun-25 06:32N 37°25' E 025°20'0 0.0
2014-Jun-25 05:32N 37°25' E 025°19'0 0.0
2014-Jun-25 04:32N 37°25' E 025°20'0 0.0
2014-Jun-25 03:32N 37°25' E 025°19'0 0.0
2014-Jun-25 02:32N 37°25' E 025°20'0 0.0
2014-Jun-25 01:32N 37°25' E 025°19'0 0.0
2014-Jun-25 00:32N 37°25' E 025°20'0 0.0
2014-Jun-24 23:32N 37°25' E 025°20'0 0.0
2014-Jun-24 22:32N 37°25' E 025°20'0 0.0
2014-Jun-24 21:32N 37°25' E 025°20'0 0.0
2014-Jun-24 20:32N 37°25' E 025°20'0 0.0
2014-Jun-24 19:32N 37°25' E 025°20'0 0.0
2014-Jun-24 18:32N 37°25' E 025°20'0 0.0
2014-Jun-24 17:32N 37°25' E 025°20'0 0.0
2014-Jun-24 16:32N 37°25' E 025°20'0 0.0
2014-Jun-24 15:31N 37°25' E 025°20'0 0.0
2014-Jun-24 14:31N 37°25' E 025°20'0 0.0
2014-Jun-24 13:28N 37°25' E 025°20'0 0.0
2014-Jun-24 12:31N 37°25' E 025°20'0 0.0
2014-Jun-24 11:31N 37°25' E 025°20'0 0.0
2014-Jun-24 10:31N 37°25' E 025°20'0 0.0
2014-Jun-24 09:31N 37°25' E 025°20'0 0.0
2014-Jun-24 08:19N 37°25' E 025°20'0 0.0
2014-Jun-24 07:31N 37°25' E 025°20'0 0.0
2014-Jun-24 06:31N 37°25' E 025°20'0 0.0
2014-Jun-24 05:31N 37°25' E 025°20'0 0.0
2014-Jun-24 04:31N 37°25' E 025°20'0 0.0
2014-Jun-24 03:33N 37°25' E 025°20'6 6.0
2014-Jun-24 02:32N 37°20' E 025°15'1212.2
2014-Jun-24 01:33N 37°17' E 025°00'1412.5
2014-Jun-24 00:26N 37°14' E 024°43'61 1.7
2014-Jun-22 12:30N 37°21' E 023°27'1010.0
2014-Jun-22 11:33N 37°28' E 023°35'1212.4
2014-Jun-22 10:33N 37°39' E 023°42'1212.3
2014-Jun-22 09:33N 37°50' E 023°37'6 6.2
2014-Jun-22 08:31N 37°56' E 023°41'0 0.0
2014-Jun-22 07:25N 37°56' E 023°41'0 0.0
2014-Jun-22 06:31N 37°56' E 023°41'0 0.0
2014-Jun-22 05:31N 37°56' E 023°41'0 0.0
2014-Jun-22 04:31N 37°56' E 023°41'0 0.0
2014-Jun-22 03:19N 37°56' E 023°41'0 0.0
2014-Jun-22 02:31N 37°56' E 023°41'0 0.0
2014-Jun-22 01:31N 37°56' E 023°41'0 0.0
2014-Jun-22 00:31N 37°56' E 023°41'0 0.0
2014-Jun-21 23:31N 37°56' E 023°41'0 0.0
2014-Jun-21 21:31N 37°56' E 023°41'0 0.0
2014-Jun-21 20:31N 37°56' E 023°41'0 0.0
2014-Jun-21 19:31N 37°56' E 023°41'0 0.0
2014-Jun-21 18:31N 37°56' E 023°41'0 0.0
2014-Jun-21 17:31N 37°56' E 023°41'0 0.0
2014-Jun-21 16:31N 37°56' E 023°41'0 0.0
2014-Jun-21 15:31N 37°56' E 023°41'0 0.0
2014-Jun-21 14:31N 37°56' E 023°41'0 0.0
2014-Jun-21 13:31N 37°56' E 023°41'0 0.0
2014-Jun-21 11:25N 37°56' E 023°41'0 0.0
2014-Jun-21 10:31N 37°56' E 023°41'0 0.0
2014-Jun-21 09:31N 37°56' E 023°41'0 0.0
2014-Jun-21 08:07N 37°56' E 023°41'0 0.0
2014-Jun-21 07:22N 37°56' E 023°41'0 0.0
2014-Jun-21 06:31N 37°56' E 023°41'0 0.0
2014-Jun-21 05:31N 37°56' E 023°41'0 0.0
2014-Jun-21 04:25N 37°56' E 023°41'0 0.0
2014-Jun-21 03:30N 37°56' E 023°41'0 0.0
2014-Jun-21 02:33N 37°56' E 023°41'0 0.0
2014-Jun-21 01:33N 37°56' E 023°41'0 0.0
2014-Jun-21 00:30N 37°56' E 023°41'0 0.0
2014-Jun-20 23:30N 37°56' E 023°41'0 0.0
2014-Jun-20 22:33N 37°56' E 023°41'0 0.0
2014-Jun-20 21:33N 37°56' E 023°41'0 0.0
2014-Jun-20 20:30N 37°56' E 023°41'0 0.0
2014-Jun-20 19:30N 37°56' E 023°41'0 0.0
2014-Jun-20 18:33N 37°56' E 023°41'0 0.0
2014-Jun-20 17:33N 37°56' E 023°41'0 0.0
2014-Jun-20 16:33N 37°56' E 023°41'0 0.0
2014-Jun-20 15:33N 37°56' E 023°41'0 0.0
2014-Jun-20 14:33N 37°56' E 023°41'0 0.0
2014-Jun-20 13:33N 37°56' E 023°41'  
Track history (hours):
 
Tides and Currents Weather Stations Pressure Air Temp Water Temp Dewpoint Dewpoint Depression Visibility Wind Speed Wind Dir Waves Ship Positions

Audacia

Last reported at 2014-Jun-30 13:27 UTC. Time now 2014-Jul-24 14:39 UTC.
Position N 37°52' E 027°16'.
Warning: this ship's position is 24 days out of date.

; draft 3.2 m.

Type: Pleasure craft. MMSI: 319825000.

Date/timePositionNaut miles runAvg speedWind from/ knotsBaromVisibWave heightAir tempDewpointWater temp
2014-Jun-30 13:27N 37°52' E 027°16'  
2014-Jun-27 11:30N 36°41' E 027°23'10 1.4
2014-Jun-27 04:18N 36°36' E 027°35'6412.5
2014-Jun-26 23:11N 36°29' E 026°16'912.4
2014-Jun-26 22:28N 36°29' E 026°05'1212.6
2014-Jun-26 21:33N 36°29' E 025°50'1212.5
2014-Jun-26 20:33N 36°30' E 025°35'1110.9
2014-Jun-26 19:33N 36°27' E 025°21'4 0.6
2014-Jun-26 12:25N 36°25' E 025°26'5 5.2
2014-Jun-26 11:33N 36°28' E 025°21'1312.6
2014-Jun-26 10:33N 36°40' E 025°18'3 2.6
2014-Jun-26 09:33N 36°43' E 025°17'0 0.0
2014-Jun-26 07:33N 36°43' E 025°17'0 0.0
2014-Jun-26 06:27N 36°43' E 025°17'0 0.0
2014-Jun-26 05:27N 36°43' E 025°17'0 0.0
2014-Jun-26 03:27N 36°43' E 025°17'15 1.0
2014-Jun-25 12:31N 36°57' E 025°17'1212.1
2014-Jun-25 11:33N 37°09' E 025°20'1312.7
2014-Jun-25 10:33N 37°21' E 025°20'3 3.3
2014-Jun-25 09:32N 37°25' E 025°20'0 0.0
2014-Jun-25 08:32N 37°25' E 025°20'0 0.0
2014-Jun-25 07:29N 37°25' E 025°20'0 0.0
2014-Jun-25 06:32N 37°25' E 025°20'0 0.0
2014-Jun-25 05:32N 37°25' E 025°19'0 0.0
2014-Jun-25 04:32N 37°25' E 025°20'0 0.0
2014-Jun-25 03:32N 37°25' E 025°19'0 0.0
2014-Jun-25 02:32N 37°25' E 025°20'0 0.0
2014-Jun-25 01:32N 37°25' E 025°19'0 0.0
2014-Jun-25 00:32N 37°25' E 025°20'0 0.0
2014-Jun-24 23:32N 37°25' E 025°20'0 0.0
2014-Jun-24 22:32N 37°25' E 025°20'0 0.0
2014-Jun-24 21:32N 37°25' E 025°20'0 0.0
2014-Jun-24 20:32N 37°25' E 025°20'0 0.0
2014-Jun-24 19:32N 37°25' E 025°20'0 0.0
2014-Jun-24 18:32N 37°25' E 025°20'0 0.0
2014-Jun-24 17:32N 37°25' E 025°20'0 0.0
2014-Jun-24 16:32N 37°25' E 025°20'0 0.0
2014-Jun-24 15:31N 37°25' E 025°20'0 0.0
2014-Jun-24 14:31N 37°25' E 025°20'0 0.0
2014-Jun-24 13:28N 37°25' E 025°20'0 0.0
2014-Jun-24 12:31N 37°25' E 025°20'0 0.0
2014-Jun-24 11:31N 37°25' E 025°20'0 0.0
2014-Jun-24 10:31N 37°25' E 025°20'0 0.0
2014-Jun-24 09:31N 37°25' E 025°20'0 0.0
2014-Jun-24 08:19N 37°25' E 025°20'0 0.0
2014-Jun-24 07:31N 37°25' E 025°20'0 0.0
2014-Jun-24 06:31N 37°25' E 025°20'0 0.0
2014-Jun-24 05:31N 37°25' E 025°20'0 0.0
2014-Jun-24 04:31N 37°25' E 025°20'0 0.0
2014-Jun-24 03:33N 37°25' E 025°20'6 6.0
2014-Jun-24 02:32N 37°20' E 025°15'1212.2
2014-Jun-24 01:33N 37°17' E 025°00'1412.5
2014-Jun-24 00:26N 37°14' E 024°43'61 1.7
2014-Jun-22 12:30N 37°21' E 023°27'1010.0
2014-Jun-22 11:33N 37°28' E 023°35'1212.4
2014-Jun-22 10:33N 37°39' E 023°42'1212.3
2014-Jun-22 09:33N 37°50' E 023°37'6 6.2
2014-Jun-22 08:31N 37°56' E 023°41'0 0.0
2014-Jun-22 07:25N 37°56' E 023°41'0 0.0
2014-Jun-22 06:31N 37°56' E 023°41'0 0.0
2014-Jun-22 05:31N 37°56' E 023°41'0 0.0
2014-Jun-22 04:31N 37°56' E 023°41'0 0.0
2014-Jun-22 03:19N 37°56' E 023°41'0 0.0
2014-Jun-22 02:31N 37°56' E 023°41'0 0.0
2014-Jun-22 01:31N 37°56' E 023°41'0 0.0
2014-Jun-22 00:31N 37°56' E 023°41'0 0.0
2014-Jun-21 23:31N 37°56' E 023°41'0 0.0
2014-Jun-21 21:31N 37°56' E 023°41'0 0.0
2014-Jun-21 20:31N 37°56' E 023°41'0 0.0
2014-Jun-21 19:31N 37°56' E 023°41'0 0.0
2014-Jun-21 18:31N 37°56' E 023°41'0 0.0
2014-Jun-21 17:31N 37°56' E 023°41'0 0.0
2014-Jun-21 16:31N 37°56' E 023°41'0 0.0
2014-Jun-21 15:31N 37°56' E 023°41'0 0.0
2014-Jun-21 14:31N 37°56' E 023°41'0 0.0
2014-Jun-21 13:31N 37°56' E 023°41'0 0.0
2014-Jun-21 11:25N 37°56' E 023°41'0 0.0
2014-Jun-21 10:31N 37°56' E 023°41'0 0.0
2014-Jun-21 09:31N 37°56' E 023°41'0 0.0
2014-Jun-21 08:07N 37°56' E 023°41'0 0.0
2014-Jun-21 07:22N 37°56' E 023°41'0 0.0
2014-Jun-21 06:31N 37°56' E 023°41'0 0.0
2014-Jun-21 05:31N 37°56' E 023°41'0 0.0
2014-Jun-21 04:25N 37°56' E 023°41'0 0.0
2014-Jun-21 03:30N 37°56' E 023°41'0 0.0
2014-Jun-21 02:33N 37°56' E 023°41'0 0.0
2014-Jun-21 01:33N 37°56' E 023°41'0 0.0
2014-Jun-21 00:30N 37°56' E 023°41'0 0.0
2014-Jun-20 23:30N 37°56' E 023°41'0 0.0
2014-Jun-20 22:33N 37°56' E 023°41'0 0.0
2014-Jun-20 21:33N 37°56' E 023°41'0 0.0
2014-Jun-20 20:30N 37°56' E 023°41'0 0.0
2014-Jun-20 19:30N 37°56' E 023°41'0 0.0
2014-Jun-20 18:33N 37°56' E 023°41'0 0.0
2014-Jun-20 17:33N 37°56' E 023°41'0 0.0
2014-Jun-20 16:33N 37°56' E 023°41'0 0.0
2014-Jun-20 15:33N 37°56' E 023°41'0 0.0
2014-Jun-20 14:33N 37°56' E 023°41'0 0.0
2014-Jun-20 13:33N 37°56' E 023°41'  

Dump ship's entire track history